PWSweather.com
Personal Weather Stations
Station Observations
NCCALABA57
The Farm, Calabash, NC 28467

The FarmCalabash, NC 28467

Lat: 33.9246539, Lon: -78.5696509

Elevation: 44

Station Type: Davis Vantage Pro 2

Latest ConditionsUpdated 10:00:00 AM EST Wednesday, Nov 21, 2018
Currently Today's Max Today's Min Today's Average
Temperature 52.1°F11.2°C 52.1°F11.2°C 42.0°F5.6°C 46.2°F7.9°C
Dew Point 41.8°F5.4°C 44.8°F7.1°C 36.2°F2.3°C 39.1°F3.9°C
Winds 3.5 mph N5.6 kmh N 5.8 mph -9.3 kmh - - 3.1 mph 5.0 kmh
Wind Gusts 3.5 mph5.6 kmh 9.2 mph14.8 kmh - -
Humidity 68% 80% 68% 76%
Pressure 30.28 in1025.4 mb 30.28 in1025.4 mb 30.19 in1022.4 mb -
Hour Temp Dew Point Humidity Winds Wind Gusts Pressure Precip Precip Rate Daily Precip Total
10:00 AM 52.1°F11.2°C 41.8°F5.4°C 68% 3.5 mph N5.6 kmh N 3.5 mph5.6 kmh 30.28 in1025.4 mb - 0.00 in0.0 mm 0.00 in0.0 mm
09:30 AM 49.8°F9.9°C 40.7°F4.8°C 71% 3.5 mph NNE5.6 kmh NNE 6.9 mph11.1 kmh 30.28 in1025.4 mb - 0.00 in0.0 mm 0.00 in0.0 mm
09:00 AM 47.1°F8.4°C 39.2°F4.0°C 74% 2.3 mph N3.7 kmh N 5.8 mph9.3 kmh 30.28 in1025.4 mb - 0.00 in0.0 mm 0.00 in0.0 mm
08:30 AM 45.2°F7.3°C 38.4°F3.6°C 77% 3.5 mph NNE5.6 kmh NNE 9.2 mph14.8 kmh 30.28 in1025.4 mb - 0.00 in0.0 mm 0.00 in0.0 mm
08:00 AM 43.4°F6.3°C 37.3°F2.9°C 79% 2.3 mph NNE3.7 kmh NNE 9.2 mph14.8 kmh 30.27 in1025.1 mb - 0.00 in0.0 mm 0.00 in0.0 mm
07:30 AM 42.2°F5.7°C 36.5°F2.5°C 80% 2.3 mph N3.7 kmh N 4.6 mph7.4 kmh 30.26 in1024.7 mb - 0.00 in0.0 mm 0.00 in0.0 mm
07:00 AM 42.0°F5.6°C 36.3°F2.4°C 80% 2.3 mph N3.7 kmh N 3.5 mph5.6 kmh 30.25 in1024.4 mb - 0.00 in0.0 mm 0.00 in0.0 mm
06:30 AM 42.6°F5.9°C 36.2°F2.3°C 78% 2.3 mph N3.7 kmh N 3.5 mph5.6 kmh 30.24 in1024.0 mb - 0.00 in0.0 mm 0.00 in0.0 mm
06:00 AM 43.0°F6.1°C 36.3°F2.4°C 77% 1.2 mph NNE1.9 kmh NNE 2.3 mph3.7 kmh 30.24 in1024.0 mb - 0.00 in0.0 mm 0.00 in0.0 mm
05:30 AM 43.7°F6.5°C 36.6°F2.6°C 76% 1.2 mph N1.9 kmh N 4.6 mph7.4 kmh 30.23 in1023.7 mb - 0.00 in0.0 mm 0.00 in0.0 mm
05:00 AM 44.3°F6.8°C 36.2°F2.3°C 73% 2.3 mph NNE3.7 kmh NNE 3.5 mph5.6 kmh 30.22 in1023.4 mb - 0.00 in0.0 mm 0.00 in0.0 mm
04:30 AM 44.5°F6.9°C 36.7°F2.6°C 74% 2.3 mph NW3.7 kmh NW 4.6 mph7.4 kmh 30.20 in1022.7 mb - 0.00 in0.0 mm 0.00 in0.0 mm
04:00 AM 44.9°F7.2°C 37.4°F3.0°C 75% 4.6 mph N7.4 kmh N 9.2 mph14.8 kmh 30.21 in1023.0 mb - 0.00 in0.0 mm 0.00 in0.0 mm
03:30 AM 45.4°F7.4°C 37.9°F3.3°C 75% 3.5 mph NNE5.6 kmh NNE 3.5 mph5.6 kmh 30.21 in1023.0 mb - 0.00 in0.0 mm 0.00 in0.0 mm
03:00 AM 46.0°F7.8°C 38.9°F3.8°C 76% 3.5 mph N5.6 kmh N 4.6 mph7.4 kmh 30.22 in1023.4 mb - 0.00 in0.0 mm 0.00 in0.0 mm
02:30 AM 46.7°F8.2°C 40.2°F4.6°C 78% 3.5 mph NNE5.6 kmh NNE 6.9 mph11.1 kmh 30.21 in1023.0 mb - 0.00 in0.0 mm 0.00 in0.0 mm
02:00 AM 47.3°F8.5°C 41.1°F5.1°C 79% 5.8 mph N9.3 kmh N 8.1 mph13.0 kmh 30.21 in1023.0 mb - 0.00 in0.0 mm 0.00 in0.0 mm
01:30 AM 48.4°F9.1°C 40.9°F4.9°C 75% 4.6 mph NNE7.4 kmh NNE 9.2 mph14.8 kmh 30.20 in1022.7 mb - 0.00 in0.0 mm 0.00 in0.0 mm
01:00 AM 49.1°F9.5°C 43.2°F6.2°C 80% 2.3 mph N3.7 kmh N 4.6 mph7.4 kmh 30.20 in1022.7 mb - 0.00 in0.0 mm 0.00 in0.0 mm
12:30 AM 50.4°F10.2°C 44.4°F6.9°C 80% 3.5 mph NNE5.6 kmh NNE 3.5 mph5.6 kmh 30.19 in1022.4 mb - 0.00 in0.0 mm 0.00 in0.0 mm
12:00 AM 51.1°F10.6°C 44.8°F7.1°C 79% 4.6 mph NNE7.4 kmh NNE 6.9 mph11.1 kmh 30.19 in1022.4 mb - 0.00 in0.0 mm 0.00 in0.0 mm